Latest Weather Observations for Ernabella/Pukatja

IDS60801

Issued at 9:51 pm CST Thursday 24 September 2020 (issued every 10 minutes, with the page automatically refreshed every 10 minutes)

About weather observations | Map of weather stations | Latest weather observations for SA | Other Formats
Station Details ID: 016097 Name: PUKATJA Lat: -26.26 Lon: 132.18 Height: 703.2 m
Data from the previous 72 hours. | See also: Recent months at Ernabella/Pukatja
Date/Time
CST
Temp
°C
App
Temp
°C
Dew
Point
°C
Rel
Hum
%
Delta-T
°C
Wind Press
QNH
hPa
Press
MSL
hPa
Rain since
9am
mm
Dir  Spd
km/h
Gust
km/h
Spd
kts
Gust
kts
24/09:30pm 19.6 13.6 -1.5 24 9.3 SSW 20 28 11 15 1019.5 1017.0 0.0
24/09:00pm 19.9 13.9 -1.8 23 9.6 SSW 20 28 11 15 1019.2 1016.7 0.0
24/08:30pm 20.1 13.6 -2.3 22 9.8 SSW 22 28 12 15 1018.9 1016.3 0.0
24/08:00pm 20.5 13.6 -2.5 21 10.1 SSW 24 35 13 19 1018.9 1016.3 0.0
24/07:30pm 21.0 14.9 -3.5 19 10.6 SW 19 26 10 14 1018.6 1016.0 0.0
24/07:00pm 21.3 14.7 -3.2 19 10.7 SW 22 28 12 15 1018.6 1016.0 0.0
24/06:30pm 21.7 14.4 -2.9 19 10.8 SW 26 33 14 18 1018.3 1015.8 0.0
24/06:00pm 22.2 15.7 -2.5 19 11.0 SW 22 30 12 16 1018.3 1015.8 0.0
24/05:30pm 23.1 17.2 -2.5 18 11.5 SSW 19 26 10 14 1018.3 1015.8 0.0
24/05:00pm 23.0 16.5 -2.6 18 11.4 SSW 22 32 12 17 1018.2 1015.7 0.0
24/04:30pm 23.5 17.3 -2.9 17 11.8 SW 20 30 11 16 1018.5 1015.9 0.0
24/04:00pm 23.5 17.5 -2.9 17 11.8 SW 19 30 10 16 1018.3 1015.8 0.0
24/03:30pm 23.9 18.3 -2.6 17 11.9 WSW 17 28 9 15 1018.3 1015.8 0.0
24/03:00pm 24.4 17.9 -2.2 17 12.1 WSW 22 35 12 19 1018.7 1016.1 0.0
24/02:30pm 23.8 17.8 -2.7 17 11.9 SW 19 32 10 17 1019.1 1016.6 0.0
24/02:00pm 23.4 17.5 -2.2 18 11.6 WSW 19 32 10 17 1019.6 1017.1 0.0
24/01:30pm 23.7 18.6 -2.0 18 11.7 WSW 15 32 8 17 1020.0 1017.4 0.0
24/01:00pm 22.7 18.5 -0.7 21 10.8 SW 11 20 6 11 1020.7 1018.2 0.0
24/12:30pm 21.9 17.8 -0.1 23 10.2 SW 11 24 6 13 1021.5 1018.9 0.0
24/12:00pm 21.8 18.1 -0.2 23 10.2 NW 9 13 5 7 1021.9 1019.4 0.0
24/11:30am 20.8 16.7 -0.5 24 9.7 SSW 11 15 6 8 1022.4 1019.9 0.0
24/11:00am 20.3 16.3 0.2 26 9.3 E 11 19 6 10 1022.7 1020.3 0.0
24/10:30am 19.3 15.3 0.4 28 8.7 E 11 19 6 10 1023.1 1020.6 0.0
24/10:00am 18.3 13.9 0.4 30 8.2 E 13 17 7 9 1023.5 1021.0 0.0
24/09:30am 16.9 13.0 1.0 34 7.2 E 11 15 6 8 1023.6 1021.1 0.0
24/09:00am 16.7 12.4 1.2 35 7.1 ESE 13 19 7 10 1023.7 1021.2 0.0
24/08:30am 15.6 11.7 1.0 37 6.6 ENE 11 15 6 8 1024.0 1021.6 0.0
24/08:00am 14.8 11.8 1.0 39 6.2 NNE 6 9 3 5 1023.6 1021.1 0.0
24/07:30am 12.8 9.8 0.9 44 5.2 NNW 6 7 3 4 1023.2 1020.7 0.0
24/07:00am 9.7 7.8 0.6 53 3.9 CALM 0 6 0 3 1022.5 1020.0 0.0
24/06:30am 9.0 5.3 0.2 54 3.7 E 9 11 5 6 1022.1 1019.6 0.0
24/06:00am 10.5 6.9 0.8 51 4.2 ESE 9 13 5 7 1022.0 1019.5 0.0
24/05:30am 9.3 7.0 0.5 54 3.7 E 2 7 1 4 1022.1 1019.6 0.0
24/05:00am 9.4 6.7 0.1 52 3.9 ENE 4 6 2 3 1021.9 1019.4 0.0
24/04:30am 10.6 7.5 0.1 48 4.4 ENE 6 7 3 4 1022.1 1019.6 0.0
24/04:00am 11.6 7.9 0.1 45 4.9 ESE 9 13 5 7 1022.3 1019.8 0.0
24/03:30am 12.3 8.2 0.1 43 5.2 E 11 15 6 8 1022.3 1019.8 0.0
24/03:00am 13.6 9.2 0.6 41 5.7 ESE 13 17 7 9 1022.3 1019.8 0.0
24/02:30am 13.1 9.3 -0.5 39 5.8 E 9 17 5 9 1022.4 1019.9 0.0
24/02:00am 14.9 9.7 0.4 37 6.4 SE 17 24 9 13 1022.4 1019.9 0.0
24/01:30am 15.3 9.6 -0.4 34 6.8 SE 19 28 10 15 1022.7 1020.3 0.0
24/01:00am 15.4 9.6 -1.2 32 7.1 SE 19 24 10 13 1023.1 1020.6 0.0
24/12:30am 16.1 10.2 -1.9 29 7.6 SE 19 26 10 14 1023.4 1020.9 0.0
24/12:00am 16.5 10.9 -2.5 27 8.0 SE 17 24 9 13 1023.4 1020.9 0.0
 
Date/Time
CST
Temp
°C
App
Temp
°C
Dew
Point
°C
Rel
Hum
%
Delta-T
°C
Wind Press
QNH
hPa
Press
MSL
hPa
Rain since
9am
mm
Dir  Spd
km/h
Gust
km/h
Spd
kts
Gust
kts
23/11:30pm 16.3 11.1 -2.7 27 8.0 SE 15 22 8 12 1023.7 1021.2 0.0
23/11:00pm 16.5 10.9 -2.5 27 8.0 SE 17 20 9 11 1023.9 1021.4 0.0
23/10:30pm 16.9 11.4 -2.2 27 8.1 SSE 17 20 9 11 1024.2 1021.8 0.0
23/10:00pm 17.2 12.0 -2.4 26 8.4 SE 15 19 8 10 1024.3 1021.9 0.0
23/09:30pm 17.9 12.4 -2.4 25 8.7 SE 17 22 9 12 1024.2 1021.8 0.0
23/09:00pm 18.2 12.6 -2.7 24 8.9 SE 17 20 9 11 1024.0 1021.6 0.0
23/08:30pm 19.1 13.0 -3.7 21 9.6 SSE 19 24 10 13 1023.6 1021.1 0.0
23/08:00pm 19.3 13.5 -4.2 20 9.9 S 17 20 9 11 1023.4 1020.9 0.0
23/07:30pm 19.6 13.9 -3.9 20 9.9 S 17 22 9 12 1023.1 1020.6 0.0
23/07:00pm 20.3 14.6 -4.0 19 10.3 S 17 22 9 12 1022.6 1020.1 0.0
23/06:30pm 20.9 15.1 -4.3 18 10.7 S 17 22 9 12 1022.4 1019.9 0.0
23/06:00pm 22.0 16.6 -4.1 17 11.2 SSE 15 20 8 11 1022.1 1019.6 0.0
23/05:30pm 22.7 17.7 -4.4 16 11.6 SSW 13 20 7 11 1021.9 1019.4 0.0
23/05:00pm 22.6 17.2 -4.5 16 11.6 SSE 15 20 8 11 1021.8 1019.3 0.0
23/04:30pm 23.3 18.3 -3.9 16 11.9 S 13 26 7 14 1021.8 1019.3 0.0
23/04:00pm 23.0 18.0 -4.1 16 11.8 SSE 13 20 7 11 1021.9 1019.4 0.0
23/03:30pm 23.9 18.2 -3.4 16 12.1 SSW 17 28 9 15 1022.1 1019.6 0.0
23/03:00pm 23.0 17.7 -3.3 17 11.6 S 15 26 8 14 1022.4 1019.9 0.0
23/02:30pm 23.6 18.6 -1.3 19 11.4 S 15 22 8 12 1022.8 1020.4 0.0
23/02:00pm 22.6 18.4 -0.8 21 10.8 W 11 17 6 9 1023.3 1020.8 0.0
23/01:30pm 21.8 16.9 -0.2 23 10.2 SSE 15 22 8 12 1023.8 1021.3 0.0
23/01:00pm 21.4 16.9 0.0 24 9.9 SE 13 33 7 18 1024.3 1021.9 0.0
23/12:30pm 21.0 16.5 -0.3 24 9.8 E 13 20 7 11 1024.9 1022.4 0.0
23/12:00pm 20.8 16.8 0.6 26 9.4 SE 11 22 6 12 1025.5 1023.1 0.0
23/11:30am 20.2 15.1 0.6 27 9.1 SE 17 28 9 15 1025.8 1023.4 0.0
23/11:00am 19.2 14.4 0.3 28 8.7 ESE 15 24 8 13 1026.2 1023.7 0.0
23/10:30am 19.4 14.3 0.9 29 8.6 ESE 17 26 9 14 1026.5 1024.0 0.0
23/10:00am 18.5 13.5 1.1 31 8.1 SE 17 26 9 14 1026.7 1024.3 0.0
23/09:30am 18.2 12.8 1.3 32 7.8 ESE 19 33 10 18 1026.7 1024.3 0.0
23/09:00am 17.0 11.6 1.0 34 7.3 ESE 19 28 10 15 1026.6 1024.2 0.0
23/08:30am 16.1 11.2 1.8 38 6.6 ESE 17 22 9 12 1026.5 1024.0 0.0
23/08:00am 14.6 9.7 1.8 42 5.8 SE 17 26 9 14 1026.2 1023.7 0.0
23/07:30am 13.2 8.2 1.5 45 5.2 SE 17 22 9 12 1025.7 1023.3 0.0
23/07:00am 12.5 7.6 1.8 48 4.8 SE 17 28 9 15 1025.4 1023.0 0.0
23/06:30am 12.0 7.1 1.9 50 4.5 SE 17 26 9 14 1025.1 1022.6 0.0
23/06:00am 12.3 7.4 1.9 49 4.6 SE 17 24 9 13 1024.6 1022.1 0.0
23/05:30am 12.7 7.8 1.7 47 4.9 SE 17 24 9 13 1024.0 1021.6 0.0
23/05:00am 13.0 7.7 1.7 46 5.1 SE 19 24 10 13 1023.5 1021.0 0.0
23/04:30am 13.2 7.9 1.8 46 5.1 SE 19 28 10 15 1023.3 1020.8 0.0
23/04:00am 13.4 7.9 2.0 46 5.2 SE 20 30 11 16 1023.3 1020.8 0.0
23/03:30am 13.8 7.6 2.1 45 5.3 SE 24 37 13 20 1023.2 1020.7 0.0
23/03:00am 14.1 8.2 2.0 44 5.5 SE 22 33 12 18 1023.2 1020.7 0.0
23/02:30am 14.2 8.8 1.5 42 5.7 SSE 19 28 10 15 1023.2 1020.7 0.0
23/02:00am 14.4 9.0 1.3 41 5.9 SSE 19 26 10 14 1023.3 1020.8 0.0
23/01:30am 14.6 9.0 1.2 40 6.0 SSE 20 28 11 15 1023.2 1020.7 0.0
23/01:00am 15.1 8.6 0.5 37 6.5 SSE 24 32 13 17 1023.2 1020.7 0.0
23/12:30am 15.5 9.4 0.1 35 6.8 SSE 22 28 12 15 1023.1 1020.6 0.0
23/12:00am 16.3 9.7 -0.4 32 7.3 SSE 24 32 13 17 1023.0 1020.5 0.0
 
Date/Time
CST
Temp
°C
App
Temp
°C
Dew
Point
°C
Rel
Hum
%
Delta-T
°C
Wind Press
QNH
hPa
Press
MSL
hPa
Rain since
9am
mm
Dir  Spd
km/h
Gust
km/h
Spd
kts
Gust
kts
22/11:30pm 16.7 10.1 -0.5 31 7.6 SSE 24 32 13 17 1023.0 1020.5 0.0
22/11:00pm 17.3 10.6 -0.9 29 8.0 SSE 24 32 13 17 1023.0 1020.5 0.0
22/10:30pm 17.9 11.6 -1.3 27 8.4 SSE 22 32 12 17 1022.7 1020.3 0.0
22/10:00pm 18.3 12.2 -2.0 25 8.8 SSE 20 26 11 14 1022.5 1020.0 0.0
22/09:30pm 19.0 12.4 -3.2 22 9.4 S 22 28 12 15 1022.2 1019.7 0.0
22/09:00pm 19.3 13.5 -4.2 20 9.8 S 17 24 9 13 1021.9 1019.4 0.0
22/08:30pm 19.5 14.2 -4.0 20 9.9 S 15 20 8 11 1021.8 1019.3 0.0
22/08:00pm 19.9 14.6 -3.7 20 10.1 S 15 22 8 12 1021.6 1019.1 0.0
22/07:30pm 20.4 14.7 -4.0 19 10.3 S 17 22 9 12 1021.2 1018.7 0.0
22/07:00pm 20.8 15.1 -3.6 19 10.5 S 17 24 9 13 1020.7 1018.2 0.0
22/06:30pm 21.7 16.4 -3.6 18 10.9 S 15 19 8 10 1020.3 1017.8 0.0
22/06:00pm 22.4 16.3 -3.8 17 11.4 SSE 19 26 10 14 1019.7 1017.2 0.0
22/05:30pm 23.8 18.6 -6.2 13 12.6 SW 13 20 7 11 1019.4 1016.9 0.0
22/05:00pm 24.5 20.0 -6.7 12 13.1 NW 9 15 5 8 1019.1 1016.6 0.0
22/04:30pm 24.4 19.1 -6.8 12 13.0 WNW 13 22 7 12 1019.1 1016.6 0.0
22/04:00pm 24.4 20.0 -5.8 13 12.9 NW 9 15 5 8 1019.0 1016.5 0.0
22/03:30pm 23.9 19.5 -6.2 13 12.6 WSW 9 17 5 9 1019.0 1016.5 0.0
22/03:00pm 23.1 18.1 -4.1 16 11.8 WSW 13 20 7 11 1019.2 1016.7 0.0
22/02:30pm 23.4 19.3 -3.0 17 11.7 S 9 17 5 9 1019.3 1016.8 0.0
22/02:00pm 22.5 18.8 -3.0 18 11.3 N 7 11 4 6 1019.7 1017.2 0.0
22/01:30pm 22.3 18.6 -3.1 18 11.2 SW 7 13 4 7 1020.2 1017.6 0.0
22/01:00pm 21.4 16.9 -3.1 19 10.7 NNE 11 20 6 11 1020.5 1018.0 0.0
22/12:30pm 21.6 17.8 -1.0 22 10.3 NNE 9 13 5 7 1020.8 1018.3 0.0
22/12:00pm 20.1 15.9 -1.1 24 9.5 ESE 11 17 6 9 1021.3 1018.8 0.0
22/11:30am 19.3 14.7 -0.7 26 9.0 ESE 13 22 7 12 1021.9 1019.4 0.0
22/11:00am 19.1 14.7 0.2 28 8.6 ESE 13 22 7 12 1022.2 1019.7 0.0
22/10:30am 18.4 14.0 0.1 29 8.3 SE 13 17 7 9 1022.4 1019.9 0.0
22/10:00am 17.3 12.5 0.5 32 7.6 ESE 15 24 8 13 1022.5 1020.0 0.0
22/09:30am 16.8 11.7 0.9 34 7.2 ESE 17 22 9 12 1022.6 1020.1 0.0
22/09:00am 15.8 10.3 0.4 35 6.9 ESE 19 24 10 13 1022.4 1019.9 0.0
22/08:30am 15.4 10.6 0.4 36 6.7 ESE 15 20 8 11 1022.1 1019.6 0.0
22/08:00am 14.4 11.0 -0.8 35 6.5 ENE 7 11 4 6 1021.7 1019.2 0.0
22/07:30am 13.8 9.6 -0.6 37 6.2 SE 11 20 6 11 1020.9 1018.4 0.0
22/07:00am 12.8 8.6 -0.8 39 5.8 SSE 11 17 6 9 1020.3 1017.8 0.0
22/06:30am 12.0 7.8 -0.8 41 5.4 SE 11 15 6 8 1020.2 1017.6 0.0
22/06:00am 12.0 8.1 -1.2 40 5.5 SSE 9 17 5 9 1019.8 1017.3 0.0
22/05:30am 13.1 8.5 -0.9 38 5.9 SSE 13 20 7 11 1019.3 1016.8 0.0
22/05:00am 13.2 7.8 -1.2 37 6.1 SSE 17 24 9 13 1018.9 1016.3 0.0
22/04:30am 13.6 7.8 -1.2 36 6.3 SSE 19 26 10 14 1018.5 1015.9 0.0
22/04:00am 13.8 8.0 -1.4 35 6.4 SSE 19 26 10 14 1018.2 1015.7 0.0
22/03:30am 14.2 7.8 -1.8 33 6.7 S 22 32 12 17 1018.2 1015.7 0.0
22/03:00am 14.2 8.3 -2.2 32 6.8 SSE 19 26 10 14 1018.2 1015.7 0.0
22/02:30am 14.7 8.2 -2.2 31 7.1 S 22 30 12 16 1018.3 1015.8 0.0
22/02:00am 15.2 9.3 -2.2 30 7.3 S 19 26 10 14 1018.3 1015.8 0.0
22/01:30am 15.6 8.7 -2.8 28 7.7 S 24 35 13 19 1018.3 1015.8 0.0
22/01:00am 16.0 8.7 -3.0 27 7.9 S 26 35 14 19 1018.2 1015.7 0.0
22/12:30am 16.4 9.3 -4.2 24 8.4 S 24 35 13 19 1018.2 1015.7 0.0
22/12:00am 14.1 9.7 -5.6 25 7.6 W 9 13 5 7 1018.2 1015.7 0.0
 
Date/Time
CST
Temp
°C
App
Temp
°C
Dew
Point
°C
Rel
Hum
%
Delta-T
°C
Wind Press
QNH
hPa
Press
MSL
hPa
Rain since
9am
mm
Dir  Spd
km/h
Gust
km/h
Spd
kts
Gust
kts
21/11:30pm 14.0 9.2 -5.7 25 7.6 W 11 19 6 10 1018.3 1015.8 0.0
21/11:00pm 14.7 10.3 -6.2 23 8.0 WSW 9 24 5 13 1018.5 1015.9 0.0
21/10:30pm 17.1 10.6 -7.4 18 9.4 SSW 19 28 10 15 1018.6 1016.0 0.0
21/10:00pm 17.6 10.6 -7.7 17 9.7 SSW 22 30 12 16 1018.6 1016.0 0.0

Other formats

Comma delimited format used in spreadsheet applications
http://www.bom.gov.au/fwo/IDS60801/IDS60801.94474.axf

JavaScript Object Notation format (JSON) in row-major order
http://www.bom.gov.au/fwo/IDS60801/IDS60801.94474.json

Data quality

Most of these data are generated automatically and are frequently updated. Quality checks on data are not normally performed. It is possible for incorrect values to appear. Refer to information at About Latest Weather Observations and please check the disclaimer before using these data.